Decoded Metar for LEAG (Algeciras in SPAIN) (IATA:N/A) | Meteo·Mobile Aviation Weather
aviador You're here:

LEAG Decoded Metar

Algeciras in SPAIN
Report Time2019-09-23 09:00:00
UTC Time2019-09-23 09:20:21
Flight Rules vfr VFR
WindVRB at 05 Gusting to 16 kt
Visibility9999 m
Phenomena:N/A
Clouds:N/A
Expected CloudBase > 2,800 ft AGL from Temp-Dew spread
CeilingNone
Temp22°C
Dew Point15°C (65% RH)
AAT21.9°C
QNH1020 hPa
Raw Report
METAR LEAG 230900Z AUTO VRB05G16KT CAVOK 22/15 Q1020=

Extra information for LEAG:More info

Metar Taf Metar & Taf Last 4 Metars F.Rules Stats Wind Profile Meteogram Temp Stats Airport Information Weather charts Add Link Nearby VenuesMetar ALERT Operation Metar Decoded Social comments